createdAt,value
2024-05-09T00:02:23.703Z,22.70
2024-05-09T00:05:11.766Z,22.60
2024-05-09T00:08:00.420Z,22.70
2024-05-09T00:10:48.228Z,22.60
2024-05-09T00:13:36.018Z,22.60
2024-05-09T00:16:23.641Z,22.60
2024-05-09T00:19:11.565Z,22.50
2024-05-09T00:21:59.594Z,22.40
2024-05-09T00:24:47.244Z,22.40
2024-05-09T00:27:36.428Z,22.30
2024-05-09T00:30:31.466Z,22.10
2024-05-09T00:33:23.127Z,22.00
2024-05-09T00:36:11.159Z,21.90
2024-05-09T00:38:58.859Z,21.80
2024-05-09T00:41:46.512Z,21.70
2024-05-09T00:44:34.346Z,21.60
2024-05-09T00:47:22.891Z,21.60
2024-05-09T00:50:18.995Z,21.60
2024-05-09T00:53:17.553Z,21.50
2024-05-09T00:56:08.090Z,21.50
2024-05-09T00:58:56.310Z,21.40
2024-05-09T01:01:46.239Z,21.40
2024-05-09T01:04:34.122Z,21.50
2024-05-09T01:07:21.839Z,21.40
2024-05-09T01:10:14.065Z,21.50
2024-05-09T01:13:08.473Z,21.40
2024-05-09T01:15:58.523Z,21.50
2024-05-09T01:18:46.375Z,21.40
2024-05-09T01:21:34.942Z,21.40
2024-05-09T01:24:22.712Z,21.30
2024-05-09T01:27:10.725Z,21.30
2024-05-09T01:29:58.463Z,21.20
2024-05-09T01:32:46.268Z,21.40
2024-05-09T01:35:34.249Z,21.40
2024-05-09T01:38:22.091Z,21.40
2024-05-09T01:41:09.868Z,21.20
2024-05-09T01:43:57.528Z,21.40
2024-05-09T01:46:45.258Z,21.40
2024-05-09T01:49:40.266Z,21.40
2024-05-09T01:52:27.990Z,21.40
2024-05-09T01:55:15.758Z,21.50
2024-05-09T01:58:03.454Z,21.50
2024-05-09T02:00:51.262Z,21.30
2024-05-09T02:03:39.056Z,21.50
2024-05-09T02:06:26.868Z,21.50
2024-05-09T02:09:16.545Z,21.50
2024-05-09T02:12:04.658Z,21.40
2024-05-09T02:14:52.498Z,21.50
2024-05-09T02:17:40.450Z,21.50
2024-05-09T02:20:35.564Z,21.50
2024-05-09T02:23:24.539Z,21.40
2024-05-09T02:26:12.340Z,21.40
2024-05-09T02:29:00.330Z,21.40
2024-05-09T02:31:48.139Z,21.30
2024-05-09T02:34:35.960Z,21.40
2024-05-09T02:37:23.611Z,21.40
2024-05-09T02:40:14.681Z,21.50
2024-05-09T02:43:08.015Z,21.50
2024-05-09T02:45:56.282Z,21.50
2024-05-09T02:48:44.123Z,21.50
2024-05-09T02:51:31.974Z,21.60
2024-05-09T02:54:19.684Z,21.70
2024-05-09T02:57:07.387Z,21.60
2024-05-09T02:59:55.084Z,21.70
2024-05-09T03:02:46.003Z,21.80
2024-05-09T03:05:34.093Z,21.70
2024-05-09T03:08:22.070Z,21.60
2024-05-09T03:11:09.840Z,21.70
2024-05-09T03:13:57.839Z,21.60
2024-05-09T03:16:45.568Z,21.70
2024-05-09T03:19:36.925Z,21.60
2024-05-09T03:22:24.668Z,21.60
2024-05-09T03:25:12.321Z,21.70
2024-05-09T03:28:00.118Z,21.80
2024-05-09T03:30:47.767Z,21.80
2024-05-09T03:33:35.990Z,21.70
2024-05-09T03:36:23.825Z,21.70
2024-05-09T03:39:12.163Z,21.70
2024-05-09T03:42:00.100Z,21.80
2024-05-09T03:44:47.757Z,21.70
2024-05-09T03:47:35.869Z,21.70
2024-05-09T03:50:30.118Z,21.80
2024-05-09T03:53:23.090Z,21.80
2024-05-09T03:56:11.216Z,21.90
2024-05-09T03:58:58.902Z,22.00
2024-05-09T04:01:46.715Z,22.10
2024-05-09T04:04:34.612Z,22.30
2024-05-09T04:07:22.282Z,22.50
2024-05-09T04:10:17.109Z,22.50
2024-05-09T04:13:11.554Z,22.60
2024-05-09T04:15:59.177Z,22.70
2024-05-09T04:18:46.975Z,22.80
2024-05-09T04:21:34.746Z,22.90
2024-05-09T04:24:22.401Z,23.00
2024-05-09T04:27:10.256Z,23.30
2024-05-09T04:29:57.966Z,23.40
2024-05-09T04:32:48.037Z,23.70
2024-05-09T04:35:35.948Z,23.90
2024-05-09T04:38:23.952Z,23.70
2024-05-09T04:41:12.331Z,24.20
2024-05-09T04:44:00.035Z,25.00
2024-05-09T04:46:48.391Z,25.20
2024-05-09T04:49:36.134Z,25.30
2024-05-09T04:52:23.805Z,25.90
2024-05-09T04:55:11.481Z,26.30
2024-05-09T04:57:59.130Z,26.60
2024-05-09T05:00:50.202Z,26.80
2024-05-09T05:03:38.232Z,26.70
2024-05-09T05:06:26.132Z,26.90
2024-05-09T05:09:13.861Z,26.80
2024-05-09T05:12:02.994Z,27.30
2024-05-09T05:14:50.686Z,27.70
2024-05-09T05:17:38.611Z,28.50
2024-05-09T05:20:32.881Z,28.70
2024-05-09T05:23:23.502Z,29.40
2024-05-09T05:26:11.393Z,30.00
2024-05-09T05:28:59.178Z,31.40
2024-05-09T05:31:46.956Z,31.40
2024-05-09T05:34:35.546Z,31.80
2024-05-09T05:37:23.199Z,31.80
2024-05-09T05:40:14.645Z,32.00
2024-05-09T05:43:10.793Z,31.90
2024-05-09T05:45:58.637Z,32.30
2024-05-09T05:48:46.408Z,32.00
2024-05-09T05:51:34.110Z,31.70
2024-05-09T05:54:21.822Z,31.60
2024-05-09T05:57:09.497Z,30.60
2024-05-09T05:59:57.255Z,30.10
2024-05-09T06:02:45.173Z,29.60
2024-05-09T06:05:33.416Z,29.00
2024-05-09T06:08:21.300Z,28.20
2024-05-09T06:11:09.056Z,27.90
2024-05-09T06:13:56.784Z,27.60
2024-05-09T06:16:44.544Z,27.30
2024-05-09T06:19:32.339Z,27.30
2024-05-09T06:22:20.181Z,27.10
2024-05-09T06:25:08.016Z,27.20
2024-05-09T06:27:55.659Z,27.20
2024-05-09T06:30:43.617Z,27.50
2024-05-09T06:33:31.680Z,27.40
2024-05-09T06:36:20.007Z,27.50
2024-05-09T06:39:10.230Z,26.90
2024-05-09T06:41:57.906Z,26.80
2024-05-09T06:44:45.636Z,26.50
2024-05-09T06:47:33.449Z,26.60
2024-05-09T06:50:24.273Z,27.00
2024-05-09T06:53:16.978Z,27.00
2024-05-09T06:56:05.306Z,27.00
2024-05-09T06:58:54.648Z,27.00
2024-05-09T07:01:42.909Z,27.00
2024-05-09T07:04:30.929Z,27.10
2024-05-09T07:07:18.689Z,27.50
2024-05-09T07:10:09.953Z,27.80
2024-05-09T07:12:59.819Z,27.60
2024-05-09T07:15:47.486Z,27.80
2024-05-09T07:18:35.408Z,27.70
2024-05-09T07:21:23.373Z,27.70
2024-05-09T07:24:11.129Z,27.60
2024-05-09T07:26:59.088Z,27.50
2024-05-09T07:29:46.825Z,27.80
2024-05-09T07:32:34.728Z,27.80
2024-05-09T07:35:22.951Z,28.20
2024-05-09T07:38:10.822Z,28.10
2024-05-09T07:41:01.640Z,27.80
2024-05-09T07:43:49.376Z,28.10
2024-05-09T07:47:47.295Z,28.30
2024-05-09T07:51:32.396Z,28.30
2024-05-09T07:53:35.400Z,28.40
2024-05-09T07:56:00.252Z,28.60
2024-05-09T07:58:50.909Z,28.80
2024-05-09T08:01:38.913Z,29.00
2024-05-09T08:04:26.772Z,29.10
2024-05-09T08:07:14.751Z,29.30
2024-05-09T08:10:02.786Z,29.40
2024-05-09T08:12:51.126Z,29.80
2024-05-09T08:15:39.246Z,30.00
2024-05-09T08:18:27.253Z,30.10
2024-05-09T08:21:15.038Z,30.00
2024-05-09T08:24:02.968Z,29.70
2024-05-09T08:26:50.572Z,29.50
2024-05-09T08:29:38.335Z,29.20
2024-05-09T08:32:27.571Z,29.30
2024-05-09T08:35:15.665Z,29.60
2024-05-09T08:38:05.152Z,29.50
2024-05-09T08:41:03.867Z,29.60
2024-05-09T08:43:51.743Z,29.10
2024-05-09T08:46:51.354Z,29.20
2024-05-09T08:49:41.370Z,29.20
2024-05-09T08:52:29.435Z,29.40
2024-05-09T08:55:17.549Z,29.60
2024-05-09T08:58:07.660Z,29.80
2024-05-09T09:00:57.657Z,29.90
2024-05-09T09:03:46.365Z,30.10
2024-05-09T09:06:36.513Z,30.30
2024-05-09T09:09:27.000Z,30.30
2024-05-09T09:12:15.423Z,30.10
2024-05-09T09:15:03.535Z,30.10
2024-05-09T09:17:59.405Z,30.20
2024-05-09T09:20:47.431Z,30.30
2024-05-09T09:23:35.166Z,29.90
2024-05-09T09:26:23.640Z,29.50
2024-05-09T09:29:11.405Z,30.10
2024-05-09T09:32:04.182Z,30.60
2024-05-09T09:34:52.980Z,30.60
2024-05-09T09:37:40.709Z,30.60
2024-05-09T09:40:37.115Z,31.10
2024-05-09T09:43:29.386Z,30.70
2024-05-09T09:46:19.469Z,30.70
2024-05-09T09:49:09.283Z,31.30
2024-05-09T09:51:58.022Z,31.30
2024-05-09T09:54:46.324Z,31.60
2024-05-09T09:57:35.634Z,31.40
2024-05-09T10:00:32.046Z,31.00
2024-05-09T10:03:20.962Z,31.10
2024-05-09T10:06:10.747Z,31.30
2024-05-09T10:08:58.701Z,31.30
2024-05-09T10:11:51.845Z,32.00
2024-05-09T10:14:48.903Z,31.60
2024-05-09T10:17:36.759Z,31.80
2024-05-09T10:20:28.187Z,31.90
2024-05-09T10:23:29.667Z,31.70
2024-05-09T10:26:17.507Z,32.20
2024-05-09T10:29:19.361Z,32.40
2024-05-09T10:32:09.354Z,32.50
2024-05-09T10:35:09.125Z,32.80
2024-05-09T10:37:57.355Z,32.60
2024-05-09T10:40:49.042Z,32.60
2024-05-09T10:43:41.087Z,32.60
2024-05-09T10:46:28.862Z,32.80
2024-05-09T10:49:17.408Z,32.70
2024-05-09T10:52:05.575Z,32.90
2024-05-09T10:54:54.545Z,32.90
2024-05-09T10:57:43.403Z,32.30
2024-05-09T11:00:36.383Z,32.50
2024-05-09T11:03:25.948Z,33.30
2024-05-09T11:06:16.765Z,33.40
2024-05-09T11:09:06.376Z,33.60
2024-05-09T11:11:54.818Z,33.70
2024-05-09T11:14:54.448Z,33.30
2024-05-09T11:17:42.193Z,33.80
2024-05-09T11:20:38.158Z,33.80
2024-05-09T11:23:30.772Z,34.00
2024-05-09T11:26:21.659Z,34.00
2024-05-09T11:29:09.526Z,33.80
2024-05-09T11:31:57.251Z,33.30
2024-05-09T11:34:44.950Z,32.80
2024-05-09T11:37:36.057Z,32.10
2024-05-09T11:40:28.360Z,31.90
2024-05-09T11:43:21.598Z,31.50
2024-05-09T11:46:09.372Z,31.80
2024-05-09T11:48:57.232Z,31.70
2024-05-09T11:51:45.149Z,31.60
2024-05-09T11:54:32.855Z,31.60
2024-05-09T11:57:20.691Z,31.40
2024-05-09T12:00:11.915Z,30.60
2024-05-09T12:03:04.968Z,30.70
2024-05-09T12:05:53.484Z,30.80
2024-05-09T12:08:41.900Z,31.00
2024-05-09T12:11:29.648Z,31.20
2024-05-09T12:14:17.347Z,31.10
2024-05-09T12:17:05.872Z,31.30
2024-05-09T12:19:53.670Z,31.00
2024-05-09T12:22:41.419Z,30.80
2024-05-09T12:25:29.106Z,31.40
2024-05-09T12:28:17.014Z,31.50
2024-05-09T12:31:05.064Z,32.00
2024-05-09T12:33:54.829Z,32.30
2024-05-09T12:36:43.768Z,32.50
2024-05-09T12:39:31.658Z,32.90
2024-05-09T12:42:26.499Z,32.70
2024-05-09T12:45:15.903Z,32.20
2024-05-09T12:48:07.038Z,32.30
2024-05-09T12:50:57.748Z,32.90
2024-05-09T12:53:45.689Z,33.30
2024-05-09T12:56:33.762Z,33.20
2024-05-09T12:59:21.430Z,33.50
2024-05-09T13:02:09.455Z,33.20
2024-05-09T13:04:57.560Z,32.60
2024-05-09T13:07:47.158Z,32.40
2024-05-09T13:10:35.167Z,32.10
2024-05-09T13:13:23.167Z,32.30
2024-05-09T13:16:11.014Z,32.50
2024-05-09T13:18:58.770Z,32.60
2024-05-09T13:21:46.549Z,32.50
2024-05-09T13:24:34.263Z,32.40
2024-05-09T13:27:22.182Z,31.70
2024-05-09T13:30:17.611Z,31.00
2024-05-09T13:33:14.318Z,31.00
2024-05-09T13:36:02.371Z,31.00
2024-05-09T13:38:50.187Z,30.90
2024-05-09T13:41:37.904Z,30.90
2024-05-09T13:44:25.573Z,29.70
2024-05-09T13:47:15.235Z,30.20
2024-05-09T13:50:05.170Z,30.10
2024-05-09T13:52:52.981Z,30.10
2024-05-09T13:55:41.186Z,30.40
2024-05-09T13:58:28.947Z,30.50
2024-05-09T14:01:17.093Z,30.00
2024-05-09T14:04:05.446Z,29.70
2024-05-09T14:06:53.637Z,29.10
2024-05-09T14:09:41.356Z,29.40
2024-05-09T14:12:29.138Z,29.10
2024-05-09T14:15:16.898Z,29.50
2024-05-09T14:18:05.066Z,29.80
2024-05-09T14:20:53.041Z,30.30
2024-05-09T14:23:40.740Z,30.70
2024-05-09T14:26:28.717Z,31.30
2024-05-09T14:29:16.363Z,31.50
2024-05-09T14:32:04.499Z,31.80
2024-05-09T14:34:52.210Z,31.80
2024-05-09T14:37:40.019Z,32.30
2024-05-09T14:40:37.259Z,32.00
2024-05-09T14:43:29.536Z,32.60
2024-05-09T14:46:17.292Z,32.20
2024-05-09T14:49:06.052Z,32.60
2024-05-09T14:51:54.425Z,32.80
2024-05-09T14:54:42.110Z,32.80
2024-05-09T14:57:29.903Z,32.70
2024-05-09T15:00:26.006Z,33.10
2024-05-09T15:03:18.498Z,33.10
2024-05-09T15:06:06.660Z,32.90
2024-05-09T15:08:57.368Z,32.70
2024-05-09T15:11:46.355Z,32.80
2024-05-09T15:14:34.035Z,33.00
2024-05-09T15:17:21.935Z,33.00
2024-05-09T15:20:16.854Z,32.70
2024-05-09T15:23:06.997Z,32.60
2024-05-09T15:25:55.286Z,32.40
2024-05-09T15:28:43.101Z,32.20
2024-05-09T15:31:30.720Z,32.70
2024-05-09T15:34:18.453Z,31.90
2024-05-09T15:37:06.439Z,31.70
2024-05-09T15:39:54.779Z,31.70
2024-05-09T15:42:43.398Z,31.30
2024-05-09T15:45:31.159Z,31.10
2024-05-09T15:48:19.359Z,31.00
2024-05-09T15:51:07.220Z,31.10
2024-05-09T15:53:54.939Z,31.10
2024-05-09T15:56:47.414Z,30.90
2024-05-09T15:59:35.920Z,30.80
2024-05-09T16:02:23.852Z,30.60
2024-05-09T16:05:11.733Z,30.60
2024-05-09T16:07:59.748Z,31.00
2024-05-09T16:10:48.111Z,31.40
2024-05-09T16:13:36.077Z,31.80
2024-05-09T16:16:23.857Z,32.10
2024-05-09T16:19:11.890Z,32.50
2024-05-09T16:22:00.509Z,31.90
2024-05-09T16:24:49.009Z,31.60
2024-05-09T16:27:36.805Z,31.70
2024-05-09T16:30:31.679Z,31.40
2024-05-09T16:33:24.027Z,31.30
2024-05-09T16:36:11.831Z,31.20
2024-05-09T16:39:00.024Z,31.10
2024-05-09T16:41:47.685Z,31.00
2024-05-09T16:44:35.704Z,30.90
2024-05-09T16:47:23.863Z,31.20
2024-05-09T16:50:15.814Z,31.30
2024-05-09T16:53:07.324Z,31.60
2024-05-09T16:55:55.613Z,31.70
2024-05-09T16:58:44.072Z,31.70
2024-05-09T17:01:31.752Z,31.70
2024-05-09T17:04:19.589Z,31.90
2024-05-09T17:07:07.441Z,32.60
2024-05-09T17:09:55.187Z,32.90
2024-05-09T17:12:43.202Z,33.10
2024-05-09T17:15:32.034Z,33.50
2024-05-09T17:18:20.700Z,33.70
2024-05-09T17:21:08.427Z,33.80
2024-05-09T17:23:56.122Z,33.30
2024-05-09T17:26:43.960Z,33.00
2024-05-09T17:29:31.828Z,31.70
2024-05-09T17:32:19.610Z,31.70
2024-05-09T17:35:07.681Z,31.40
2024-05-09T17:37:55.525Z,31.00
2024-05-09T17:40:43.350Z,30.90
2024-05-09T17:43:34.405Z,30.60
2024-05-09T17:46:22.543Z,30.50
2024-05-09T17:49:10.399Z,30.40
2024-05-09T17:51:58.112Z,30.30
2024-05-09T17:54:45.872Z,30.30
2024-05-09T17:57:34.120Z,30.10
2024-05-09T18:00:32.445Z,29.90
2024-05-09T18:03:25.948Z,29.70
2024-05-09T18:06:13.948Z,29.60
2024-05-09T18:09:01.688Z,29.50
2024-05-09T18:11:49.588Z,29.30
2024-05-09T18:14:37.442Z,29.20
2024-05-09T18:17:26.261Z,29.10
2024-05-09T18:20:19.842Z,29.00
2024-05-09T18:23:18.687Z,28.80
2024-05-09T18:26:08.892Z,28.50
2024-05-09T18:28:56.692Z,28.40
2024-05-09T18:31:44.425Z,28.20
2024-05-09T18:34:32.174Z,28.10
2024-05-09T18:37:20.077Z,28.00
2024-05-09T18:40:12.202Z,27.70
2024-05-09T18:43:08.407Z,27.60
2024-05-09T18:45:57.004Z,27.60
2024-05-09T18:48:44.802Z,27.60
2024-05-09T18:51:32.754Z,27.40
2024-05-09T18:54:20.435Z,27.40
2024-05-09T18:57:08.335Z,27.20
2024-05-09T18:59:56.455Z,27.30
2024-05-09T19:02:44.382Z,27.20
2024-05-09T19:05:32.474Z,27.10
2024-05-09T19:08:20.519Z,26.90
2024-05-09T19:11:08.341Z,26.80
2024-05-09T19:13:56.127Z,26.60
2024-05-09T19:16:44.455Z,26.40
2024-05-09T19:19:32.352Z,26.10
2024-05-09T19:22:20.403Z,25.90
2024-05-09T19:25:08.454Z,25.70
2024-05-09T19:27:56.322Z,25.40
2024-05-09T19:30:44.071Z,25.30
2024-05-09T19:33:32.654Z,25.10
2024-05-09T19:36:20.583Z,25.00
2024-05-09T19:39:08.351Z,24.80
2024-05-09T19:41:56.004Z,24.70
2024-05-09T19:44:43.737Z,24.60
2024-05-09T19:47:31.473Z,24.40
2024-05-09T19:50:26.793Z,24.30
2024-05-09T19:53:23.467Z,24.10
2024-05-09T19:56:11.325Z,23.90
2024-05-09T19:58:59.014Z,23.80
2024-05-09T20:01:46.954Z,23.70
2024-05-09T20:04:34.984Z,23.60
2024-05-09T20:07:22.954Z,23.30
2024-05-09T20:10:16.736Z,23.20
2024-05-09T20:13:11.214Z,23.10
2024-05-09T20:16:01.617Z,22.90
2024-05-09T20:18:49.508Z,22.80
2024-05-09T20:21:43.612Z,22.70
2024-05-09T20:24:31.355Z,22.60
2024-05-09T20:27:19.103Z,22.50
2024-05-09T20:30:12.082Z,22.40
2024-05-09T20:33:04.948Z,22.40
2024-05-09T20:35:55.663Z,22.20
2024-05-09T20:38:45.573Z,22.20
2024-05-09T20:41:35.812Z,22.10
2024-05-09T20:44:24.244Z,22.10
2024-05-09T20:47:12.378Z,22.00
2024-05-09T20:50:00.016Z,21.90
2024-05-09T20:52:47.825Z,21.70
2024-05-09T20:55:35.507Z,21.70
2024-05-09T20:58:23.512Z,21.60
2024-05-09T21:01:12.927Z,21.50
2024-05-09T21:04:02.718Z,21.40
2024-05-09T21:06:50.535Z,21.40
2024-05-09T21:09:38.238Z,21.40
2024-05-09T21:12:25.989Z,21.40
2024-05-09T21:15:13.882Z,21.50
2024-05-09T21:18:01.750Z,21.40
2024-05-09T21:20:49.437Z,21.30
2024-05-09T21:23:40.618Z,21.20
2024-05-09T21:26:29.641Z,21.20
2024-05-09T21:29:17.360Z,21.10
2024-05-09T21:32:05.524Z,21.10
2024-05-09T21:34:53.242Z,21.00
2024-05-09T21:37:41.000Z,21.00
2024-05-09T21:40:34.250Z,20.90
2024-05-09T21:43:23.939Z,20.80
2024-05-09T21:46:11.976Z,20.80
2024-05-09T21:48:59.956Z,20.90
2024-05-09T21:51:50.114Z,20.90
2024-05-09T21:54:38.057Z,20.80
2024-05-09T21:57:25.706Z,20.80
2024-05-09T22:00:28.301Z,20.70
2024-05-09T22:03:22.826Z,20.70
2024-05-09T22:06:10.661Z,20.60
2024-05-09T22:08:58.336Z,20.60
2024-05-09T22:11:47.431Z,20.60
2024-05-09T22:14:35.870Z,20.60
2024-05-09T22:17:23.707Z,20.60
2024-05-09T22:20:18.119Z,20.60
2024-05-09T22:23:10.960Z,20.50
2024-05-09T22:25:58.645Z,20.40
2024-05-09T22:28:46.534Z,20.40
2024-05-09T22:31:34.260Z,20.60
2024-05-09T22:34:22.229Z,20.50
2024-05-09T22:37:10.170Z,20.40
2024-05-09T22:39:58.060Z,20.30
2024-05-09T22:42:45.775Z,20.20
2024-05-09T22:45:33.639Z,20.20
2024-05-09T22:48:21.593Z,20.10
2024-05-09T22:51:09.318Z,20.00
2024-05-09T22:53:57.040Z,19.80
2024-05-09T22:56:44.750Z,19.60
2024-05-09T22:59:32.518Z,19.90
2024-05-09T23:02:20.277Z,19.80
2024-05-09T23:05:08.210Z,19.70
2024-05-09T23:07:55.869Z,19.70
2024-05-09T23:10:43.670Z,19.60
2024-05-09T23:13:31.931Z,19.50
2024-05-09T23:16:19.674Z,19.50
2024-05-09T23:19:09.889Z,19.40
2024-05-09T23:21:57.680Z,19.30
2024-05-09T23:24:45.348Z,19.20
2024-05-09T23:27:33.065Z,19.20
2024-05-09T23:30:29.246Z,19.10
2024-05-09T23:33:24.625Z,19.10
2024-05-09T23:36:12.537Z,19.00
2024-05-09T23:39:00.789Z,19.00
2024-05-09T23:41:48.415Z,19.00
2024-05-09T23:44:36.134Z,19.10
2024-05-09T23:47:24.216Z,19.10
2024-05-09T23:50:16.969Z,19.00
2024-05-09T23:53:11.655Z,18.90
2024-05-09T23:55:59.423Z,19.00
2024-05-09T23:58:48.706Z,18.90
